createdAt,value
2022-08-22T00:01:37.254Z,19.74
2022-08-22T00:02:58.380Z,20.90
2022-08-22T00:03:00.233Z,20.71
2022-08-22T00:04:08.120Z,19.73
2022-08-22T00:06:52.467Z,19.71
2022-08-22T00:09:40.504Z,19.77
2022-08-22T00:12:24.065Z,19.75
2022-08-22T00:15:03.611Z,19.81
2022-08-22T00:17:37.144Z,19.76
2022-08-22T00:20:08.649Z,19.69
2022-08-22T00:22:47.594Z,19.78
2022-08-22T00:25:40.264Z,19.73
2022-08-22T00:28:21.357Z,19.68
2022-08-22T00:30:56.245Z,19.61
2022-08-22T00:33:41.994Z,19.56
2022-08-22T00:36:24.315Z,19.54
2022-08-22T00:39:18.930Z,19.52
2022-08-22T00:42:10.507Z,19.52
2022-08-22T00:44:56.955Z,19.50
2022-08-22T00:47:40.222Z,19.46
2022-08-22T00:50:33.702Z,19.46
2022-08-22T00:53:40.438Z,19.51
2022-08-22T00:56:31.210Z,19.53
2022-08-22T00:59:23.822Z,19.54
2022-08-22T01:02:02.586Z,19.57
2022-08-22T01:04:45.329Z,19.57
2022-08-22T01:07:38.281Z,19.57
2022-08-22T01:10:17.304Z,19.55
2022-08-22T01:13:03.325Z,19.50
2022-08-22T01:15:35.011Z,19.47
2022-08-22T01:18:26.374Z,19.45
2022-08-22T01:21:17.323Z,19.47
2022-08-22T01:24:06.979Z,19.50
2022-08-22T01:27:03.631Z,19.52
2022-08-22T01:29:48.786Z,19.51
2022-08-22T01:33:02.741Z,19.47
2022-08-22T01:35:53.410Z,19.43
2022-08-22T01:38:22.584Z,19.37
2022-08-22T01:41:17.328Z,19.40
2022-08-22T01:43:58.580Z,19.37
2022-08-22T01:46:36.165Z,19.35
2022-08-22T01:49:18.952Z,19.33
2022-08-22T01:51:50.184Z,19.31
2022-08-22T01:54:37.816Z,19.23
2022-08-22T01:57:08.329Z,19.12
2022-08-22T01:59:43.981Z,19.22
2022-08-22T02:02:13.447Z,19.18
2022-08-22T02:05:09.049Z,19.12
2022-08-22T02:07:56.457Z,19.15
2022-08-22T02:10:41.989Z,19.11
2022-08-22T02:13:33.338Z,19.14
2022-08-22T02:16:16.083Z,19.17
2022-08-22T02:19:09.890Z,19.13
2022-08-22T02:22:03.109Z,19.14
2022-08-22T02:24:52.483Z,19.09
2022-08-22T02:27:38.521Z,19.01
2022-08-22T02:30:20.152Z,19.02
2022-08-22T02:33:08.831Z,19.02
2022-08-22T02:36:13.997Z,19.02
2022-08-22T02:38:57.298Z,18.92
2022-08-22T02:41:37.351Z,18.97
2022-08-22T02:44:17.212Z,18.92
2022-08-22T02:46:51.697Z,18.94
2022-08-22T02:49:51.339Z,18.97
2022-08-22T02:52:25.349Z,18.92
2022-08-22T02:55:08.072Z,18.85
2022-08-22T02:57:44.846Z,18.87
2022-08-22T03:00:33.039Z,18.94
2022-08-22T03:03:14.498Z,18.95
2022-08-22T03:05:51.720Z,18.94
2022-08-22T03:08:25.925Z,18.90
2022-08-22T03:11:06.124Z,18.90
2022-08-22T03:13:57.181Z,18.97
2022-08-22T03:17:02.646Z,19.01
2022-08-22T03:20:06.395Z,19.04
2022-08-22T03:22:43.627Z,18.97
2022-08-22T03:25:24.445Z,18.86
2022-08-22T03:28:03.341Z,18.77
2022-08-22T03:30:56.334Z,18.82
2022-08-22T03:33:26.312Z,18.81
2022-08-22T03:35:52.790Z,18.85
2022-08-22T03:38:45.648Z,18.82
2022-08-22T03:41:50.676Z,18.83
2022-08-22T03:44:18.186Z,18.82
2022-08-22T03:47:16.885Z,18.84
2022-08-22T03:50:11.773Z,18.83
2022-08-22T03:53:18.639Z,18.81
2022-08-22T03:55:51.856Z,18.75
2022-08-22T03:58:34.553Z,18.71
2022-08-22T04:01:22.888Z,18.67
2022-08-22T04:04:10.918Z,18.66
2022-08-22T04:06:50.574Z,18.64
2022-08-22T04:09:56.548Z,18.70
2022-08-22T04:12:41.800Z,18.79
2022-08-22T04:15:36.570Z,18.72
2022-08-22T04:18:26.799Z,18.81
2022-08-22T04:21:40.000Z,18.83
2022-08-22T04:24:27.896Z,18.76
2022-08-22T04:26:59.283Z,18.66
2022-08-22T04:29:38.783Z,18.66
2022-08-22T04:32:20.034Z,18.64
2022-08-22T04:34:59.222Z,18.64
2022-08-22T04:37:39.335Z,18.58
2022-08-22T04:40:22.066Z,18.55
2022-08-22T04:43:01.791Z,18.56
2022-08-22T04:45:57.325Z,18.58
2022-08-22T04:48:57.054Z,18.53
2022-08-22T04:51:34.121Z,18.56
2022-08-22T04:54:37.596Z,18.50
2022-08-22T04:57:27.254Z,18.48
2022-08-22T05:00:03.811Z,18.45
2022-08-22T05:02:31.219Z,18.42
2022-08-22T05:05:13.170Z,18.47
2022-08-22T05:07:48.376Z,18.46
2022-08-22T05:10:39.001Z,18.52
2022-08-22T05:13:07.766Z,18.56
2022-08-22T05:15:37.955Z,18.48
2022-08-22T05:18:18.201Z,18.55
2022-08-22T05:20:49.305Z,18.53
2022-08-22T05:23:24.705Z,18.55
2022-08-22T05:25:56.686Z,18.64
2022-08-22T05:28:39.121Z,18.64
2022-08-22T05:31:12.041Z,18.67
2022-08-22T05:33:45.250Z,18.71
2022-08-22T05:36:27.446Z,18.81
2022-08-22T05:39:21.151Z,18.83
2022-08-22T05:41:53.763Z,18.91
2022-08-22T05:44:34.017Z,18.88
2022-08-22T05:47:21.165Z,18.92
2022-08-22T05:50:02.706Z,18.85
2022-08-22T05:53:06.339Z,18.85
2022-08-22T05:55:39.616Z,18.80
2022-08-22T05:58:31.514Z,18.84
2022-08-22T06:01:25.196Z,18.86
2022-08-22T06:04:09.920Z,18.92
2022-08-22T06:06:51.082Z,19.07
2022-08-22T06:09:38.324Z,19.08
2022-08-22T06:12:21.879Z,19.10
2022-08-22T06:15:11.575Z,19.19
2022-08-22T06:17:49.046Z,19.25
2022-08-22T06:20:27.037Z,19.25
2022-08-22T06:23:01.955Z,19.25
2022-08-22T06:25:40.664Z,19.29
2022-08-22T06:28:13.495Z,19.25
2022-08-22T06:30:45.483Z,19.32
2022-08-22T06:33:17.703Z,19.36
2022-08-22T06:36:07.778Z,19.46
2022-08-22T06:38:56.308Z,19.37
2022-08-22T06:41:27.977Z,19.30
2022-08-22T06:43:57.274Z,19.33
2022-08-22T06:46:29.036Z,19.32
2022-08-22T06:49:00.208Z,19.30
2022-08-22T06:51:29.291Z,19.28
2022-08-22T06:54:01.403Z,19.36
2022-08-22T06:56:37.642Z,19.35
2022-08-22T06:59:12.691Z,19.35
2022-08-22T07:01:46.669Z,19.51
2022-08-22T07:04:13.391Z,19.56
2022-08-22T07:06:44.477Z,19.65
2022-08-22T07:09:25.263Z,19.86
2022-08-22T07:11:54.276Z,19.95
2022-08-22T07:14:38.707Z,20.00
2022-08-22T07:17:08.871Z,20.27
2022-08-22T07:19:41.641Z,20.44
2022-08-22T07:22:17.470Z,20.57
2022-08-22T07:24:55.563Z,20.78
2022-08-22T07:27:37.306Z,20.75
2022-08-22T07:30:16.921Z,20.93
2022-08-22T07:33:25.822Z,20.93
2022-08-22T07:35:54.595Z,21.01
2022-08-22T07:38:37.516Z,21.11
2022-08-22T07:41:13.263Z,21.32
2022-08-22T07:43:46.670Z,21.35
2022-08-22T07:46:32.923Z,21.62
2022-08-22T07:49:16.462Z,21.71
2022-08-22T07:51:48.000Z,21.87
2022-08-22T07:54:20.986Z,21.97
2022-08-22T07:57:04.501Z,22.12
2022-08-22T07:59:36.058Z,22.27
2022-08-22T08:02:07.944Z,22.43
2022-08-22T08:04:40.251Z,22.52
2022-08-22T08:07:10.748Z,22.60
2022-08-22T08:10:09.952Z,22.70
2022-08-22T08:12:54.168Z,22.62
2022-08-22T08:15:32.265Z,22.66
2022-08-22T08:18:06.081Z,22.61
2022-08-22T08:20:36.466Z,22.97
2022-08-22T08:23:08.317Z,23.08
2022-08-22T08:25:58.087Z,23.28
2022-08-22T08:28:34.631Z,23.59
2022-08-22T08:31:10.566Z,23.44
2022-08-22T08:33:40.979Z,23.55
2022-08-22T08:36:15.816Z,23.61
2022-08-22T08:38:55.085Z,23.60
2022-08-22T08:41:27.559Z,23.80
2022-08-22T08:44:23.358Z,23.92
2022-08-22T08:47:23.836Z,23.91
2022-08-22T08:50:15.431Z,23.70
2022-08-22T08:53:16.045Z,23.71
2022-08-22T08:56:06.159Z,23.96
2022-08-22T08:58:53.686Z,24.01
2022-08-22T09:01:21.102Z,24.28
2022-08-22T09:04:20.431Z,24.37
2022-08-22T09:07:24.008Z,24.18
2022-08-22T09:10:29.746Z,24.39
2022-08-22T09:13:27.230Z,24.55
2022-08-22T09:16:10.039Z,24.71
2022-08-22T09:18:57.404Z,24.84
2022-08-22T09:22:00.735Z,24.83
2022-08-22T09:24:47.805Z,25.08
2022-08-22T09:27:42.941Z,25.19
2022-08-22T09:30:28.574Z,25.21
2022-08-22T09:33:02.627Z,25.13
2022-08-22T09:35:51.088Z,25.10
2022-08-22T09:38:26.228Z,25.49
2022-08-22T09:41:05.970Z,25.31
2022-08-22T09:44:01.177Z,25.37
2022-08-22T09:46:40.337Z,25.46
2022-08-22T09:49:16.443Z,25.74
2022-08-22T09:51:58.187Z,26.08
2022-08-22T09:54:43.381Z,26.08
2022-08-22T09:57:41.559Z,26.17
2022-08-22T10:00:10.734Z,26.43
2022-08-22T10:02:45.559Z,26.57
2022-08-22T10:05:40.872Z,26.45
2022-08-22T10:08:11.507Z,26.52
2022-08-22T10:11:02.553Z,26.65
2022-08-22T10:13:38.564Z,26.98
2022-08-22T10:16:33.493Z,26.74
2022-08-22T10:19:09.000Z,26.96
2022-08-22T10:22:06.222Z,27.21
2022-08-22T10:25:18.570Z,27.37
2022-08-22T10:28:10.574Z,27.57
2022-08-22T10:31:13.779Z,27.70
2022-08-22T10:34:02.668Z,28.11
2022-08-22T10:36:45.255Z,28.23
2022-08-22T10:39:22.604Z,27.78
2022-08-22T10:42:24.262Z,27.96
2022-08-22T10:45:35.429Z,28.04
2022-08-22T10:48:10.007Z,28.44
2022-08-22T10:50:52.234Z,28.35
2022-08-22T10:53:37.189Z,28.41
2022-08-22T10:56:21.539Z,28.45
2022-08-22T10:59:09.519Z,28.32
2022-08-22T11:01:44.687Z,28.01
2022-08-22T11:04:28.053Z,27.74
2022-08-22T11:07:11.080Z,28.08
2022-08-22T11:09:45.670Z,28.29
2022-08-22T11:12:19.369Z,28.61
2022-08-22T11:15:12.873Z,28.96
2022-08-22T11:18:01.469Z,29.14
2022-08-22T11:20:42.975Z,29.32
2022-08-22T11:23:12.728Z,29.35
2022-08-22T11:26:07.434Z,28.94
2022-08-22T11:29:13.156Z,29.02
2022-08-22T11:32:05.636Z,28.93
2022-08-22T11:34:34.303Z,29.12
2022-08-22T11:37:43.244Z,29.32
2022-08-22T11:40:32.993Z,29.52
2022-08-22T11:43:18.304Z,29.53
2022-08-22T11:45:51.493Z,29.54
2022-08-22T11:48:28.352Z,29.29
2022-08-22T11:51:13.721Z,29.22
2022-08-22T11:53:47.757Z,29.10
2022-08-22T11:56:49.941Z,28.85
2022-08-22T11:59:32.503Z,28.68
2022-08-22T12:02:05.049Z,28.47
2022-08-22T12:04:45.962Z,28.62
2022-08-22T12:07:18.688Z,28.50
2022-08-22T12:10:16.324Z,28.64
2022-08-22T12:13:34.943Z,28.72
2022-08-22T12:16:22.390Z,28.69
2022-08-22T12:20:12.773Z,28.66
2022-08-22T12:23:15.143Z,28.70
2022-08-22T12:26:22.058Z,28.82
2022-08-22T12:29:27.585Z,28.79
2022-08-22T12:32:27.821Z,28.62
2022-08-22T12:35:32.050Z,28.46
2022-08-22T12:38:28.777Z,28.29
2022-08-22T12:41:36.047Z,28.40
2022-08-22T12:44:27.519Z,28.41
2022-08-22T12:47:20.257Z,28.44
2022-08-22T12:50:12.312Z,28.36
2022-08-22T12:52:59.101Z,28.33
2022-08-22T12:55:46.539Z,28.51
2022-08-22T12:58:51.182Z,28.70
2022-08-22T13:01:19.212Z,28.84
2022-08-22T13:03:58.070Z,28.65
2022-08-22T13:06:33.621Z,28.70
2022-08-22T13:09:11.064Z,28.57
2022-08-22T13:11:41.605Z,28.73
2022-08-22T13:14:18.552Z,28.87
2022-08-22T13:16:56.963Z,29.13
2022-08-22T13:19:37.840Z,29.03
2022-08-22T13:22:13.499Z,28.77
2022-08-22T13:24:55.091Z,28.69
2022-08-22T13:27:30.351Z,28.75
2022-08-22T13:30:04.213Z,29.03
2022-08-22T13:32:46.283Z,29.16
2022-08-22T13:35:34.355Z,29.28
2022-08-22T13:38:14.995Z,29.36
2022-08-22T13:40:56.651Z,29.30
2022-08-22T13:43:46.472Z,29.53
2022-08-22T13:46:26.399Z,29.55
2022-08-22T13:49:01.280Z,29.42
2022-08-22T13:52:14.511Z,29.42
2022-08-22T13:55:12.266Z,29.12
2022-08-22T13:57:53.806Z,29.20
2022-08-22T14:00:28.767Z,28.77
2022-08-22T14:03:19.242Z,29.00
2022-08-22T14:05:53.777Z,29.13
2022-08-22T14:08:37.052Z,29.20
2022-08-22T14:11:12.096Z,29.24
2022-08-22T14:13:47.369Z,29.20
2022-08-22T14:16:25.504Z,29.35
2022-08-22T14:18:57.265Z,29.34
2022-08-22T14:21:42.367Z,29.23
2022-08-22T14:24:09.538Z,29.07
2022-08-22T14:26:47.847Z,28.97
2022-08-22T14:29:18.866Z,29.01
2022-08-22T14:32:08.790Z,29.37
2022-08-22T14:34:42.476Z,29.48
2022-08-22T14:37:24.922Z,29.60
2022-08-22T14:40:02.229Z,29.60
2022-08-22T14:42:44.443Z,29.38
2022-08-22T14:45:24.719Z,29.40
2022-08-22T14:48:29.985Z,29.22
2022-08-22T14:50:56.644Z,29.42
2022-08-22T14:53:33.254Z,29.65
2022-08-22T14:56:22.018Z,29.99
2022-08-22T14:58:58.842Z,30.45
2022-08-22T15:01:29.928Z,30.64
2022-08-22T15:04:07.991Z,30.68
2022-08-22T15:06:53.717Z,30.45
2022-08-22T15:09:25.803Z,30.70
2022-08-22T15:11:53.446Z,30.69
2022-08-22T15:14:27.842Z,30.57
2022-08-22T15:17:00.629Z,30.90
2022-08-22T15:19:35.536Z,31.02
2022-08-22T15:22:25.598Z,31.22
2022-08-22T15:25:40.878Z,30.80
2022-08-22T15:28:17.150Z,30.77
2022-08-22T15:31:03.987Z,30.94
2022-08-22T15:33:34.671Z,30.90
2022-08-22T15:36:11.189Z,30.41
2022-08-22T15:38:48.061Z,30.60
2022-08-22T15:41:41.072Z,31.25
2022-08-22T15:44:30.886Z,31.72
2022-08-22T15:47:11.753Z,32.20
2022-08-22T15:50:01.919Z,32.75
2022-08-22T15:52:35.868Z,32.79
2022-08-22T15:55:17.308Z,33.07
2022-08-22T15:58:13.017Z,33.58
2022-08-22T16:01:03.145Z,33.80
2022-08-22T16:03:33.172Z,33.82
2022-08-22T16:06:01.824Z,33.78
2022-08-22T16:08:37.136Z,33.68
2022-08-22T16:11:23.844Z,33.70
2022-08-22T16:14:39.436Z,34.19
2022-08-22T16:17:28.776Z,34.67
2022-08-22T16:20:20.122Z,34.99
2022-08-22T16:23:08.015Z,34.80
2022-08-22T16:25:51.977Z,34.95
2022-08-22T16:28:57.336Z,35.53
2022-08-22T16:31:34.012Z,35.58
2022-08-22T16:34:36.410Z,35.06
2022-08-22T16:37:03.009Z,35.17
2022-08-22T16:39:36.140Z,34.64
2022-08-22T16:42:15.774Z,34.28
2022-08-22T16:44:49.989Z,34.83
2022-08-22T16:47:41.465Z,34.55
2022-08-22T16:50:23.323Z,34.58
2022-08-22T16:53:31.168Z,35.32
2022-08-22T16:56:17.369Z,36.14
2022-08-22T16:59:23.337Z,36.44
2022-08-22T17:02:09.903Z,34.57
2022-08-22T17:05:02.836Z,35.43
2022-08-22T17:07:37.324Z,36.54
2022-08-22T17:10:24.851Z,37.26
2022-08-22T17:13:10.084Z,37.19
2022-08-22T17:15:55.251Z,37.31
2022-08-22T17:18:40.221Z,37.54
2022-08-22T17:21:25.785Z,37.69
2022-08-22T17:24:32.411Z,37.92
2022-08-22T17:27:25.712Z,37.96
2022-08-22T17:30:24.932Z,37.99
2022-08-22T17:33:11.780Z,37.90
2022-08-22T17:36:26.856Z,38.00
2022-08-22T17:39:42.498Z,37.99
2022-08-22T17:42:38.148Z,35.88
2022-08-22T17:45:07.760Z,33.87
2022-08-22T17:47:44.532Z,32.52
2022-08-22T17:50:22.740Z,31.71
2022-08-22T17:52:54.893Z,30.94
2022-08-22T17:55:52.313Z,30.35
2022-08-22T17:58:37.736Z,29.72
2022-08-22T18:01:13.674Z,29.00
2022-08-22T18:03:52.716Z,28.36
2022-08-22T18:06:26.549Z,28.04
2022-08-22T18:09:18.326Z,27.87
2022-08-22T18:12:15.749Z,27.83
2022-08-22T18:15:00.506Z,27.69
2022-08-22T18:17:33.461Z,27.65
2022-08-22T18:20:09.713Z,27.61
2022-08-22T18:22:41.415Z,27.45
2022-08-22T18:25:30.171Z,27.36
2022-08-22T18:28:14.763Z,27.08
2022-08-22T18:31:09.384Z,27.13
2022-08-22T18:33:49.739Z,26.99
2022-08-22T18:36:27.600Z,27.06
2022-08-22T18:39:05.332Z,26.92
2022-08-22T18:41:47.255Z,26.83
2022-08-22T18:44:22.193Z,26.75
2022-08-22T18:46:52.151Z,26.73
2022-08-22T18:49:19.493Z,26.83
2022-08-22T18:52:13.928Z,26.84
2022-08-22T18:55:18.091Z,26.78
2022-08-22T18:58:04.765Z,26.82
2022-08-22T19:00:55.992Z,26.84
2022-08-22T19:03:38.120Z,26.75
2022-08-22T19:06:46.239Z,26.78
2022-08-22T19:09:22.814Z,26.68
2022-08-22T19:12:07.643Z,26.55
2022-08-22T19:15:16.583Z,26.43
2022-08-22T19:18:28.348Z,26.17
2022-08-22T19:21:46.875Z,26.12
2022-08-22T19:24:25.175Z,26.10
2022-08-22T19:27:07.176Z,26.04
2022-08-22T19:29:33.605Z,25.95
2022-08-22T19:32:03.093Z,25.52
2022-08-22T19:34:32.697Z,25.51
2022-08-22T19:37:31.115Z,25.57
2022-08-22T19:40:05.285Z,25.44
2022-08-22T19:42:35.975Z,25.46
2022-08-22T19:45:07.831Z,25.36
2022-08-22T19:47:39.268Z,25.30
2022-08-22T19:50:23.880Z,25.27
2022-08-22T19:53:25.050Z,25.00
2022-08-22T19:56:13.638Z,24.92
2022-08-22T19:59:06.798Z,24.87
2022-08-22T20:01:46.038Z,24.80
2022-08-22T20:04:51.419Z,24.83
2022-08-22T20:07:36.273Z,24.65
2022-08-22T20:10:29.885Z,24.62
2022-08-22T20:13:05.157Z,24.49
2022-08-22T20:15:36.058Z,24.36
2022-08-22T20:18:46.437Z,24.38
2022-08-22T20:21:00.211Z,24.32
2022-08-22T20:23:32.136Z,24.25
2022-08-22T20:25:59.575Z,24.14
2022-08-22T20:28:47.687Z,24.04
2022-08-22T20:31:27.104Z,23.88
2022-08-22T20:34:16.798Z,23.80
2022-08-22T20:36:45.710Z,23.53
2022-08-22T20:39:26.302Z,23.48
2022-08-22T20:42:01.063Z,23.29
2022-08-22T20:47:07.834Z,23.23
2022-08-22T20:49:48.592Z,23.20
2022-08-22T20:52:28.407Z,23.24
2022-08-22T20:55:31.539Z,23.16
2022-08-22T20:58:04.174Z,23.24
2022-08-22T21:00:40.522Z,23.18
2022-08-22T21:03:43.506Z,23.18
2022-08-22T21:06:16.353Z,23.26
2022-08-22T21:08:44.616Z,23.19
2022-08-22T21:11:39.391Z,23.34
2022-08-22T21:14:23.887Z,23.38
2022-08-22T21:16:52.594Z,23.24
2022-08-22T21:19:24.382Z,23.23
2022-08-22T21:21:50.913Z,22.97
2022-08-22T21:24:17.894Z,22.86
2022-08-22T21:26:55.488Z,22.77
2022-08-22T21:29:32.410Z,22.68
2022-08-22T21:32:17.243Z,22.75
2022-08-22T21:34:46.926Z,22.86
2022-08-22T21:37:25.218Z,22.86
2022-08-22T21:40:05.561Z,22.89
2022-08-22T21:42:41.757Z,22.78
2022-08-22T21:45:27.867Z,22.67
2022-08-22T21:47:54.874Z,22.68
2022-08-22T21:50:24.769Z,22.76
2022-08-22T21:52:54.147Z,22.71
2022-08-22T21:55:27.741Z,22.68
2022-08-22T21:58:06.662Z,22.65
2022-08-22T22:00:48.785Z,22.75
2022-08-22T22:03:21.455Z,22.75
2022-08-22T22:05:49.439Z,22.72
2022-08-22T22:08:17.389Z,22.79
2022-08-22T22:10:46.375Z,22.58
2022-08-22T22:13:13.630Z,22.51
2022-08-22T22:15:44.285Z,22.39
2022-08-22T22:18:13.084Z,22.41
2022-08-22T22:20:40.401Z,22.43
2022-08-22T22:23:07.857Z,22.40
2022-08-22T22:25:40.155Z,22.43
2022-08-22T22:28:14.726Z,22.48
2022-08-22T22:30:43.162Z,22.41
2022-08-22T22:33:11.326Z,22.36
2022-08-22T22:35:39.997Z,22.43
2022-08-22T22:38:07.772Z,22.23
2022-08-22T22:40:35.145Z,22.23
2022-08-22T22:43:01.686Z,22.08
2022-08-22T22:45:28.467Z,22.04
2022-08-22T22:47:55.368Z,22.02
2022-08-22T22:50:22.002Z,21.98
2022-08-22T22:52:48.742Z,21.97
2022-08-22T22:55:24.343Z,21.92
2022-08-22T22:57:58.439Z,22.00
2022-08-22T23:00:25.763Z,21.98
2022-08-22T23:02:57.327Z,22.00
2022-08-22T23:05:23.933Z,21.95
2022-08-22T23:07:50.664Z,22.02
2022-08-22T23:10:21.769Z,21.98
2022-08-22T23:12:48.758Z,22.00
2022-08-22T23:15:15.351Z,22.01
2022-08-22T23:17:42.771Z,22.01
2022-08-22T23:20:11.032Z,21.98
2022-08-22T23:22:37.605Z,21.79
2022-08-22T23:25:05.174Z,21.83
2022-08-22T23:27:32.087Z,21.72
2022-08-22T23:29:58.589Z,21.80
2022-08-22T23:32:25.135Z,21.75
2022-08-22T23:34:53.052Z,21.62
2022-08-22T23:37:21.700Z,21.62
2022-08-22T23:39:48.963Z,21.64
2022-08-22T23:42:17.991Z,21.58
2022-08-22T23:44:45.909Z,21.52
2022-08-22T23:47:14.466Z,21.53
2022-08-22T23:49:42.358Z,21.58
2022-08-22T23:52:10.162Z,21.52
2022-08-22T23:54:37.267Z,21.36
2022-08-22T23:57:11.790Z,21.27
2022-08-22T23:59:46.450Z,21.17
